sensor_id;sensor_type;location;lat;lon;timestamp;P1;durP1;ratioP1;P2;durP2;ratioP2
67544;SDS011;54380;47.770;11.150;2024-01-30T00:01:58;10.80;;;2.08;;
67544;SDS011;54380;47.770;11.150;2024-01-30T00:04:25;13.18;;;2.20;;
67544;SDS011;54380;47.770;11.150;2024-01-30T00:06:53;13.07;;;2.00;;
67544;SDS011;54380;47.770;11.150;2024-01-30T00:09:20;13.07;;;2.33;;
67544;SDS011;54380;47.770;11.150;2024-01-30T00:11:46;6.28;;;1.15;;
67544;SDS011;54380;47.770;11.150;2024-01-30T00:14:13;11.90;;;1.85;;
67544;SDS011;54380;47.770;11.150;2024-01-30T00:16:40;13.30;;;1.65;;
67544;SDS011;54380;47.770;11.150;2024-01-30T00:19:07;9.70;;;1.88;;
67544;SDS011;54380;47.770;11.150;2024-01-30T00:21:34;8.38;;;1.50;;
67544;SDS011;54380;47.770;11.150;2024-01-30T00:24:03;8.05;;;1.60;;
67544;SDS011;54380;47.770;11.150;2024-01-30T00:26:30;6.97;;;1.20;;
67544;SDS011;54380;47.770;11.150;2024-01-30T00:28:57;10.02;;;1.55;;
67544;SDS011;54380;47.770;11.150;2024-01-30T00:31:24;9.05;;;1.73;;
67544;SDS011;54380;47.770;11.150;2024-01-30T00:33:51;12.15;;;2.17;;
67544;SDS011;54380;47.770;11.150;2024-01-30T00:36:18;15.80;;;2.33;;
67544;SDS011;54380;47.770;11.150;2024-01-30T00:38:45;10.75;;;2.25;;
67544;SDS011;54380;47.770;11.150;2024-01-30T00:41:13;11.30;;;1.70;;
67544;SDS011;54380;47.770;11.150;2024-01-30T00:43:40;8.40;;;1.42;;
67544;SDS011;54380;47.770;11.150;2024-01-30T00:46:07;9.98;;;1.63;;
67544;SDS011;54380;47.770;11.150;2024-01-30T00:48:33;9.02;;;1.92;;
67544;SDS011;54380;47.770;11.150;2024-01-30T00:51:00;13.20;;;1.50;;
67544;SDS011;54380;47.770;11.150;2024-01-30T00:53:27;8.93;;;1.45;;
67544;SDS011;54380;47.770;11.150;2024-01-30T00:55:53;7.80;;;1.38;;
67544;SDS011;54380;47.770;11.150;2024-01-30T00:58:21;11.30;;;1.63;;
67544;SDS011;54380;47.770;11.150;2024-01-30T01:00:48;7.50;;;1.35;;
67544;SDS011;54380;47.770;11.150;2024-01-30T01:03:15;6.70;;;1.13;;
67544;SDS011;54380;47.770;11.150;2024-01-30T01:05:42;6.75;;;1.08;;
67544;SDS011;54380;47.770;11.150;2024-01-30T01:08:08;9.10;;;1.40;;
67544;SDS011;54380;47.770;11.150;2024-01-30T01:10:35;9.45;;;1.67;;
67544;SDS011;54380;47.770;11.150;2024-01-30T01:13:02;12.65;;;1.60;;
67544;SDS011;54380;47.770;11.150;2024-01-30T01:15:30;7.25;;;1.23;;
67544;SDS011;54380;47.770;11.150;2024-01-30T01:17:57;6.72;;;0.98;;
67544;SDS011;54380;47.770;11.150;2024-01-30T01:20:24;8.80;;;1.40;;
67544;SDS011;54380;47.770;11.150;2024-01-30T01:22:51;10.10;;;1.30;;
67544;SDS011;54380;47.770;11.150;2024-01-30T01:25:19;8.02;;;0.82;;
67544;SDS011;54380;47.770;11.150;2024-01-30T01:27:46;5.57;;;1.02;;
67544;SDS011;54380;47.770;11.150;2024-01-30T01:30:17;8.05;;;1.17;;
67544;SDS011;54380;47.770;11.150;2024-01-30T01:32:53;7.07;;;1.10;;
67544;SDS011;54380;47.770;11.150;2024-01-30T01:35:24;7.40;;;1.13;;
67544;SDS011;54380;47.770;11.150;2024-01-30T01:37:51;6.05;;;1.08;;
67544;SDS011;54380;47.770;11.150;2024-01-30T01:40:22;8.18;;;1.70;;
67544;SDS011;54380;47.770;11.150;2024-01-30T01:42:49;6.63;;;1.10;;
67544;SDS011;54380;47.770;11.150;2024-01-30T01:45:17;6.05;;;0.93;;
67544;SDS011;54380;47.770;11.150;2024-01-30T01:47:43;9.45;;;1.70;;
67544;SDS011;54380;47.770;11.150;2024-01-30T01:50:13;9.63;;;1.65;;
67544;SDS011;54380;47.770;11.150;2024-01-30T01:52:44;8.75;;;1.27;;
67544;SDS011;54380;47.770;11.150;2024-01-30T01:55:13;5.72;;;0.85;;
67544;SDS011;54380;47.770;11.150;2024-01-30T01:57:42;7.25;;;1.25;;
67544;SDS011;54380;47.770;11.150;2024-01-30T02:00:09;6.10;;;1.08;;
67544;SDS011;54380;47.770;11.150;2024-01-30T02:02:37;7.40;;;1.05;;
67544;SDS011;54380;47.770;11.150;2024-01-30T02:05:05;7.70;;;1.17;;
67544;SDS011;54380;47.770;11.150;2024-01-30T02:07:34;7.85;;;1.08;;
67544;SDS011;54380;47.770;11.150;2024-01-30T02:10:01;8.48;;;1.13;;
67544;SDS011;54380;47.770;11.150;2024-01-30T02:12:28;8.13;;;1.23;;
67544;SDS011;54380;47.770;11.150;2024-01-30T02:14:55;8.13;;;1.30;;
67544;SDS011;54380;47.770;11.150;2024-01-30T02:17:23;9.45;;;1.98;;
67544;SDS011;54380;47.770;11.150;2024-01-30T02:19:50;9.77;;;1.50;;
67544;SDS011;54380;47.770;11.150;2024-01-30T02:22:18;10.57;;;1.55;;
67544;SDS011;54380;47.770;11.150;2024-01-30T02:24:45;8.23;;;1.20;;
67544;SDS011;54380;47.770;11.150;2024-01-30T02:27:12;6.88;;;1.23;;
67544;SDS011;54380;47.770;11.150;2024-01-30T02:29:39;8.38;;;1.40;;
67544;SDS011;54380;47.770;11.150;2024-01-30T02:32:06;9.23;;;1.33;;
67544;SDS011;54380;47.770;11.150;2024-01-30T02:34:33;8.00;;;1.35;;
67544;SDS011;54380;47.770;11.150;2024-01-30T02:37:00;6.85;;;1.40;;
67544;SDS011;54380;47.770;11.150;2024-01-30T02:39:29;6.28;;;1.15;;
67544;SDS011;54380;47.770;11.150;2024-01-30T02:41:55;7.05;;;1.17;;
67544;SDS011;54380;47.770;11.150;2024-01-30T02:44:23;9.90;;;1.80;;
67544;SDS011;54380;47.770;11.150;2024-01-30T02:46:50;8.93;;;1.35;;
67544;SDS011;54380;47.770;11.150;2024-01-30T02:49:16;7.88;;;1.35;;
67544;SDS011;54380;47.770;11.150;2024-01-30T02:51:43;7.70;;;1.20;;
67544;SDS011;54380;47.770;11.150;2024-01-30T02:54:10;8.90;;;1.60;;
67544;SDS011;54380;47.770;11.150;2024-01-30T02:56:38;11.18;;;1.73;;
67544;SDS011;54380;47.770;11.150;2024-01-30T02:59:05;15.30;;;3.33;;
67544;SDS011;54380;47.770;11.150;2024-01-30T03:01:32;12.35;;;1.92;;
67544;SDS011;54380;47.770;11.150;2024-01-30T03:03:59;11.02;;;2.53;;
67544;SDS011;54380;47.770;11.150;2024-01-30T03:06:26;9.57;;;1.65;;
67544;SDS011;54380;47.770;11.150;2024-01-30T03:08:53;9.77;;;2.03;;
67544;SDS011;54380;47.770;11.150;2024-01-30T03:11:20;9.90;;;1.70;;
67544;SDS011;54380;47.770;11.150;2024-01-30T03:13:49;11.00;;;1.70;;
67544;SDS011;54380;47.770;11.150;2024-01-30T03:16:16;8.90;;;1.83;;
67544;SDS011;54380;47.770;11.150;2024-01-30T03:18:43;8.38;;;1.50;;
67544;SDS011;54380;47.770;11.150;2024-01-30T03:21:10;6.63;;;1.25;;
67544;SDS011;54380;47.770;11.150;2024-01-30T03:23:36;7.65;;;1.05;;
67544;SDS011;54380;47.770;11.150;2024-01-30T03:26:03;6.82;;;1.02;;
67544;SDS011;54380;47.770;11.150;2024-01-30T03:28:32;11.02;;;1.55;;
67544;SDS011;54380;47.770;11.150;2024-01-30T03:31:01;10.57;;;1.80;;
67544;SDS011;54380;47.770;11.150;2024-01-30T03:33:27;9.95;;;2.40;;
67544;SDS011;54380;47.770;11.150;2024-01-30T03:35:54;12.20;;;2.53;;
67544;SDS011;54380;47.770;11.150;2024-01-30T03:38:21;16.13;;;2.92;;
67544;SDS011;54380;47.770;11.150;2024-01-30T03:40:48;9.65;;;1.73;;
67544;SDS011;54380;47.770;11.150;2024-01-30T03:43:15;9.10;;;1.45;;
67544;SDS011;54380;47.770;11.150;2024-01-30T03:45:42;12.50;;;2.28;;
67544;SDS011;54380;47.770;11.150;2024-01-30T03:48:10;11.60;;;2.50;;
67544;SDS011;54380;47.770;11.150;2024-01-30T03:50:37;9.75;;;1.60;;
67544;SDS011;54380;47.770;11.150;2024-01-30T03:53:03;11.40;;;1.38;;
67544;SDS011;54380;47.770;11.150;2024-01-30T03:55:30;6.97;;;1.33;;
67544;SDS011;54380;47.770;11.150;2024-01-30T03:57:57;9.10;;;1.63;;
67544;SDS011;54380;47.770;11.150;2024-01-30T04:00:24;8.90;;;1.45;;
67544;SDS011;54380;47.770;11.150;2024-01-30T04:02:50;6.95;;;1.27;;
67544;SDS011;54380;47.770;11.150;2024-01-30T04:05:21;11.35;;;2.30;;
67544;SDS011;54380;47.770;11.150;2024-01-30T04:07:48;13.20;;;2.42;;
67544;SDS011;54380;47.770;11.150;2024-01-30T04:10:15;13.00;;;3.20;;
67544;SDS011;54380;47.770;11.150;2024-01-30T04:12:42;9.20;;;1.45;;
67544;SDS011;54380;47.770;11.150;2024-01-30T04:15:09;9.68;;;1.02;;
67544;SDS011;54380;47.770;11.150;2024-01-30T04:17:36;10.63;;;1.98;;
67544;SDS011;54380;47.770;11.150;2024-01-30T04:20:03;9.68;;;1.55;;
67544;SDS011;54380;47.770;11.150;2024-01-30T04:22:32;10.00;;;1.48;;
67544;SDS011;54380;47.770;11.150;2024-01-30T04:24:59;10.30;;;1.50;;
67544;SDS011;54380;47.770;11.150;2024-01-30T04:27:26;7.60;;;1.30;;
67544;SDS011;54380;47.770;11.150;2024-01-30T04:29:53;11.43;;;1.15;;
67544;SDS011;54380;47.770;11.150;2024-01-30T04:32:20;7.28;;;0.95;;
67544;SDS011;54380;47.770;11.150;2024-01-30T04:34:47;8.23;;;1.55;;
67544;SDS011;54380;47.770;11.150;2024-01-30T04:37:14;8.90;;;1.33;;
67544;SDS011;54380;47.770;11.150;2024-01-30T04:39:42;7.60;;;1.55;;
67544;SDS011;54380;47.770;11.150;2024-01-30T04:42:09;9.60;;;1.42;;
67544;SDS011;54380;47.770;11.150;2024-01-30T04:44:36;13.60;;;1.60;;
67544;SDS011;54380;47.770;11.150;2024-01-30T04:47:02;9.93;;;1.73;;
67544;SDS011;54380;47.770;11.150;2024-01-30T04:49:31;8.15;;;1.42;;
67544;SDS011;54380;47.770;11.150;2024-01-30T04:51:58;8.43;;;1.40;;
67544;SDS011;54380;47.770;11.150;2024-01-30T04:54:25;8.10;;;1.60;;
67544;SDS011;54380;47.770;11.150;2024-01-30T04:56:53;8.32;;;1.45;;
67544;SDS011;54380;47.770;11.150;2024-01-30T04:59:20;8.38;;;1.27;;
67544;SDS011;54380;47.770;11.150;2024-01-30T05:01:47;5.30;;;0.60;;
67544;SDS011;54380;47.770;11.150;2024-01-30T05:04:13;13.27;;;2.28;;
67544;SDS011;54380;47.770;11.150;2024-01-30T05:06:43;7.05;;;1.08;;
67544;SDS011;54380;47.770;11.150;2024-01-30T05:09:10;7.63;;;1.35;;
67544;SDS011;54380;47.770;11.150;2024-01-30T05:11:36;6.72;;;1.27;;
67544;SDS011;54380;47.770;11.150;2024-01-30T05:14:05;7.20;;;1.15;;
67544;SDS011;54380;47.770;11.150;2024-01-30T05:16:32;5.47;;;1.13;;
67544;SDS011;54380;47.770;11.150;2024-01-30T05:18:59;13.07;;;4.15;;
67544;SDS011;54380;47.770;11.150;2024-01-30T05:21:29;10.60;;;2.72;;
67544;SDS011;54380;47.770;11.150;2024-01-30T05:23:55;10.02;;;2.05;;
67544;SDS011;54380;47.770;11.150;2024-01-30T05:26:22;8.38;;;1.85;;
67544;SDS011;54380;47.770;11.150;2024-01-30T05:28:49;11.95;;;1.70;;
67544;SDS011;54380;47.770;11.150;2024-01-30T05:31:17;7.13;;;1.25;;
67544;SDS011;54380;47.770;11.150;2024-01-30T05:33:44;6.85;;;1.38;;
67544;SDS011;54380;47.770;11.150;2024-01-30T05:36:12;8.65;;;1.40;;
67544;SDS011;54380;47.770;11.150;2024-01-30T05:38:39;6.78;;;1.35;;
67544;SDS011;54380;47.770;11.150;2024-01-30T05:41:06;5.75;;;0.75;;
67544;SDS011;54380;47.770;11.150;2024-01-30T05:43:34;7.60;;;1.23;;
67544;SDS011;54380;47.770;11.150;2024-01-30T05:46:01;7.53;;;1.42;;
67544;SDS011;54380;47.770;11.150;2024-01-30T05:48:29;7.22;;;1.23;;
67544;SDS011;54380;47.770;11.150;2024-01-30T05:50:56;8.43;;;1.23;;
67544;SDS011;54380;47.770;11.150;2024-01-30T05:53:23;7.95;;;1.50;;
67544;SDS011;54380;47.770;11.150;2024-01-30T05:55:49;8.55;;;1.58;;
67544;SDS011;54380;47.770;11.150;2024-01-30T05:58:16;9.80;;;1.80;;
67544;SDS011;54380;47.770;11.150;2024-01-30T06:00:43;8.88;;;2.08;;
67544;SDS011;54380;47.770;11.150;2024-01-30T06:03:10;10.05;;;2.42;;
67544;SDS011;54380;47.770;11.150;2024-01-30T06:05:38;9.52;;;1.80;;
67544;SDS011;54380;47.770;11.150;2024-01-30T06:08:05;11.38;;;2.60;;
67544;SDS011;54380;47.770;11.150;2024-01-30T06:10:32;10.35;;;2.53;;
67544;SDS011;54380;47.770;11.150;2024-01-30T06:12:59;12.75;;;3.17;;
67544;SDS011;54380;47.770;11.150;2024-01-30T06:15:26;12.93;;;3.53;;
67544;SDS011;54380;47.770;11.150;2024-01-30T06:17:52;13.10;;;1.70;;
67544;SDS011;54380;47.770;11.150;2024-01-30T06:20:19;16.30;;;3.35;;
67544;SDS011;54380;47.770;11.150;2024-01-30T06:22:48;14.90;;;3.92;;
67544;SDS011;54380;47.770;11.150;2024-01-30T06:25:14;17.83;;;4.40;;
67544;SDS011;54380;47.770;11.150;2024-01-30T06:27:43;16.63;;;4.15;;
67544;SDS011;54380;47.770;11.150;2024-01-30T06:30:10;16.38;;;4.50;;
67544;SDS011;54380;47.770;11.150;2024-01-30T06:32:37;15.38;;;4.40;;
67544;SDS011;54380;47.770;11.150;2024-01-30T06:35:05;14.45;;;4.10;;
67544;SDS011;54380;47.770;11.150;2024-01-30T06:37:32;15.27;;;3.90;;
67544;SDS011;54380;47.770;11.150;2024-01-30T06:40:00;14.38;;;4.40;;
67544;SDS011;54380;47.770;11.150;2024-01-30T06:42:27;13.77;;;3.30;;
67544;SDS011;54380;47.770;11.150;2024-01-30T06:44:54;22.13;;;7.40;;
67544;SDS011;54380;47.770;11.150;2024-01-30T06:47:21;18.45;;;6.22;;
67544;SDS011;54380;47.770;11.150;2024-01-30T06:49:48;22.13;;;6.05;;
67544;SDS011;54380;47.770;11.150;2024-01-30T06:52:14;22.60;;;7.00;;
67544;SDS011;54380;47.770;11.150;2024-01-30T06:54:41;16.45;;;4.82;;
67544;SDS011;54380;47.770;11.150;2024-01-30T06:57:09;16.85;;;6.05;;
67544;SDS011;54380;47.770;11.150;2024-01-30T06:59:38;10.75;;;2.30;;
67544;SDS011;54380;47.770;11.150;2024-01-30T07:02:10;9.63;;;2.25;;
67544;SDS011;54380;47.770;11.150;2024-01-30T07:04:37;19.27;;;5.20;;
67544;SDS011;54380;47.770;11.150;2024-01-30T07:07:08;18.02;;;4.82;;
67544;SDS011;54380;47.770;11.150;2024-01-30T07:12:06;17.17;;;4.50;;
67544;SDS011;54380;47.770;11.150;2024-01-30T07:14:34;19.05;;;4.50;;
67544;SDS011;54380;47.770;11.150;2024-01-30T07:17:01;15.68;;;4.95;;
67544;SDS011;54380;47.770;11.150;2024-01-30T07:19:28;18.40;;;4.00;;
67544;SDS011;54380;47.770;11.150;2024-01-30T07:21:55;18.90;;;4.15;;
67544;SDS011;54380;47.770;11.150;2024-01-30T07:24:22;18.35;;;4.40;;
67544;SDS011;54380;47.770;11.150;2024-01-30T07:26:49;18.88;;;6.13;;
67544;SDS011;54380;47.770;11.150;2024-01-30T07:29:15;27.40;;;5.97;;
67544;SDS011;54380;47.770;11.150;2024-01-30T07:31:43;23.73;;;6.70;;
67544;SDS011;54380;47.770;11.150;2024-01-30T07:34:10;16.50;;;5.18;;
67544;SDS011;54380;47.770;11.150;2024-01-30T07:36:38;20.05;;;6.20;;
67544;SDS011;54380;47.770;11.150;2024-01-30T07:39:05;21.80;;;4.97;;
67544;SDS011;54380;47.770;11.150;2024-01-30T07:41:32;15.00;;;4.20;;
67544;SDS011;54380;47.770;11.150;2024-01-30T07:43:59;15.23;;;3.97;;
67544;SDS011;54380;47.770;11.150;2024-01-30T07:46:26;14.95;;;2.33;;
67544;SDS011;54380;47.770;11.150;2024-01-30T07:48:54;11.70;;;3.20;;
67544;SDS011;54380;47.770;11.150;2024-01-30T07:51:22;12.98;;;3.08;;
67544;SDS011;54380;47.770;11.150;2024-01-30T07:53:49;11.32;;;2.10;;
67544;SDS011;54380;47.770;11.150;2024-01-30T07:56:15;10.30;;;2.33;;
67544;SDS011;54380;47.770;11.150;2024-01-30T07:58:42;16.13;;;3.75;;
67544;SDS011;54380;47.770;11.150;2024-01-30T08:01:09;10.48;;;2.55;;
67544;SDS011;54380;47.770;11.150;2024-01-30T08:03:36;10.43;;;2.58;;
67544;SDS011;54380;47.770;11.150;2024-01-30T08:06:07;14.98;;;3.65;;
67544;SDS011;54380;47.770;11.150;2024-01-30T08:08:34;11.80;;;2.80;;
67544;SDS011;54380;47.770;11.150;2024-01-30T08:11:01;15.63;;;4.40;;
67544;SDS011;54380;47.770;11.150;2024-01-30T08:13:28;17.95;;;4.65;;
67544;SDS011;54380;47.770;11.150;2024-01-30T08:15:55;15.18;;;4.70;;
67544;SDS011;54380;47.770;11.150;2024-01-30T08:18:22;16.02;;;4.70;;
67544;SDS011;54380;47.770;11.150;2024-01-30T08:20:48;14.48;;;5.07;;
67544;SDS011;54380;47.770;11.150;2024-01-30T08:23:17;14.52;;;4.40;;
67544;SDS011;54380;47.770;11.150;2024-01-30T08:25:43;12.00;;;2.35;;
67544;SDS011;54380;47.770;11.150;2024-01-30T08:28:10;11.40;;;2.15;;
67544;SDS011;54380;47.770;11.150;2024-01-30T08:30:37;10.13;;;1.85;;
67544;SDS011;54380;47.770;11.150;2024-01-30T08:33:05;11.30;;;1.33;;
67544;SDS011;54380;47.770;11.150;2024-01-30T08:35:32;11.57;;;2.10;;
67544;SDS011;54380;47.770;11.150;2024-01-30T08:38:00;12.50;;;3.05;;
67544;SDS011;54380;47.770;11.150;2024-01-30T08:40:29;12.80;;;3.22;;
67544;SDS011;54380;47.770;11.150;2024-01-30T08:42:56;12.02;;;2.83;;
67544;SDS011;54380;47.770;11.150;2024-01-30T08:45:23;10.68;;;1.95;;
67544;SDS011;54380;47.770;11.150;2024-01-30T08:47:50;10.52;;;1.67;;
67544;SDS011;54380;47.770;11.150;2024-01-30T08:50:17;12.40;;;2.13;;
67544;SDS011;54380;47.770;11.150;2024-01-30T08:52:44;15.27;;;4.53;;
67544;SDS011;54380;47.770;11.150;2024-01-30T08:55:12;10.48;;;2.20;;
67544;SDS011;54380;47.770;11.150;2024-01-30T08:57:41;11.65;;;2.60;;
67544;SDS011;54380;47.770;11.150;2024-01-30T09:00:08;9.80;;;2.42;;
67544;SDS011;54380;47.770;11.150;2024-01-30T09:02:36;11.75;;;2.65;;
67544;SDS011;54380;47.770;11.150;2024-01-30T09:05:03;16.23;;;4.97;;
67544;SDS011;54380;47.770;11.150;2024-01-30T09:07:31;16.83;;;4.60;;
67544;SDS011;54380;47.770;11.150;2024-01-30T09:09:57;15.07;;;4.03;;
67544;SDS011;54380;47.770;11.150;2024-01-30T09:12:24;13.55;;;4.10;;
67544;SDS011;54380;47.770;11.150;2024-01-30T09:14:53;18.10;;;4.18;;
67544;SDS011;54380;47.770;11.150;2024-01-30T09:17:19;14.63;;;3.47;;
67544;SDS011;54380;47.770;11.150;2024-01-30T09:19:46;17.40;;;4.10;;
67544;SDS011;54380;47.770;11.150;2024-01-30T09:22:13;13.55;;;3.92;;
67544;SDS011;54380;47.770;11.150;2024-01-30T09:24:40;15.82;;;4.15;;
67544;SDS011;54380;47.770;11.150;2024-01-30T09:27:07;13.98;;;3.47;;
67544;SDS011;54380;47.770;11.150;2024-01-30T09:29:34;13.63;;;3.47;;
67544;SDS011;54380;47.770;11.150;2024-01-30T09:32:05;12.68;;;3.33;;
67544;SDS011;54380;47.770;11.150;2024-01-30T09:34:36;17.17;;;3.45;;
67544;SDS011;54380;47.770;11.150;2024-01-30T09:37:03;13.80;;;3.40;;
67544;SDS011;54380;47.770;11.150;2024-01-30T09:39:30;15.35;;;3.20;;
67544;SDS011;54380;47.770;11.150;2024-01-30T09:42:00;13.20;;;3.10;;
67544;SDS011;54380;47.770;11.150;2024-01-30T09:44:37;11.77;;;3.22;;
67544;SDS011;54380;47.770;11.150;2024-01-30T09:47:06;12.35;;;2.78;;
67544;SDS011;54380;47.770;11.150;2024-01-30T09:49:32;11.57;;;3.03;;
67544;SDS011;54380;47.770;11.150;2024-01-30T09:52:01;14.30;;;3.42;;
67544;SDS011;54380;47.770;11.150;2024-01-30T09:54:29;16.38;;;4.22;;
67544;SDS011;54380;47.770;11.150;2024-01-30T09:57:02;14.98;;;4.88;;
67544;SDS011;54380;47.770;11.150;2024-01-30T09:59:28;15.00;;;4.70;;
67544;SDS011;54380;47.770;11.150;2024-01-30T10:01:55;14.82;;;4.72;;
67544;SDS011;54380;47.770;11.150;2024-01-30T10:04:24;15.60;;;5.65;;
67544;SDS011;54380;47.770;11.150;2024-01-30T10:06:51;18.25;;;5.85;;
67544;SDS011;54380;47.770;11.150;2024-01-30T10:09:18;8.30;;;1.52;;
67544;SDS011;54380;47.770;11.150;2024-01-30T10:11:45;4.50;;;0.70;;
67544;SDS011;54380;47.770;11.150;2024-01-30T10:14:12;3.00;;;0.43;;
67544;SDS011;54380;47.770;11.150;2024-01-30T10:16:39;4.40;;;0.60;;
67544;SDS011;54380;47.770;11.150;2024-01-30T10:19:06;3.83;;;0.50;;
67544;SDS011;54380;47.770;11.150;2024-01-30T10:21:34;3.10;;;0.50;;
67544;SDS011;54380;47.770;11.150;2024-01-30T10:24:01;4.00;;;0.60;;
67544;SDS011;54380;47.770;11.150;2024-01-30T10:26:27;2.45;;;0.40;;
67544;SDS011;54380;47.770;11.150;2024-01-30T10:28:55;2.35;;;0.43;;
67544;SDS011;54380;47.770;11.150;2024-01-30T10:31:22;9.50;;;0.80;;
67544;SDS011;54380;47.770;11.150;2024-01-30T10:33:49;4.53;;;0.45;;
67544;SDS011;54380;47.770;11.150;2024-01-30T10:36:16;7.47;;;0.57;;
67544;SDS011;54380;47.770;11.150;2024-01-30T10:38:47;5.13;;;0.50;;
67544;SDS011;54380;47.770;11.150;2024-01-30T10:41:18;5.88;;;0.93;;
67544;SDS011;54380;47.770;11.150;2024-01-30T10:43:54;4.75;;;0.60;;
67544;SDS011;54380;47.770;11.150;2024-01-30T10:46:29;8.40;;;0.95;;
67544;SDS011;54380;47.770;11.150;2024-01-30T10:48:58;4.93;;;0.50;;
67544;SDS011;54380;47.770;11.150;2024-01-30T10:51:26;5.25;;;0.63;;
67544;SDS011;54380;47.770;11.150;2024-01-30T10:53:56;2.92;;;0.30;;
67544;SDS011;54380;47.770;11.150;2024-01-30T10:56:24;2.63;;;0.55;;
67544;SDS011;54380;47.770;11.150;2024-01-30T10:58:52;2.78;;;0.30;;
67544;SDS011;54380;47.770;11.150;2024-01-30T11:01:19;2.78;;;0.30;;
67544;SDS011;54380;47.770;11.150;2024-01-30T11:03:49;3.85;;;0.40;;
67544;SDS011;54380;47.770;11.150;2024-01-30T11:06:17;1.58;;;0.30;;
67544;SDS011;54380;47.770;11.150;2024-01-30T11:08:45;4.00;;;0.50;;
67544;SDS011;54380;47.770;11.150;2024-01-30T11:11:13;4.68;;;0.40;;
67544;SDS011;54380;47.770;11.150;2024-01-30T11:13:44;3.35;;;0.32;;
67544;SDS011;54380;47.770;11.150;2024-01-30T11:16:10;2.83;;;0.30;;
67544;SDS011;54380;47.770;11.150;2024-01-30T11:18:38;4.05;;;0.77;;
67544;SDS011;54380;47.770;11.150;2024-01-30T11:21:04;3.53;;;0.63;;
67544;SDS011;54380;47.770;11.150;2024-01-30T11:23:33;2.35;;;0.30;;
67544;SDS011;54380;47.770;11.150;2024-01-30T11:26:00;2.47;;;0.40;;
67544;SDS011;54380;47.770;11.150;2024-01-30T11:28:31;3.50;;;0.43;;
67544;SDS011;54380;47.770;11.150;2024-01-30T11:31:03;7.70;;;0.60;;
67544;SDS011;54380;47.770;11.150;2024-01-30T11:33:30;4.78;;;0.60;;
67544;SDS011;54380;47.770;11.150;2024-01-30T11:36:00;3.55;;;0.57;;
67544;SDS011;54380;47.770;11.150;2024-01-30T11:38:28;6.70;;;0.52;;
67544;SDS011;54380;47.770;11.150;2024-01-30T11:40:55;3.20;;;0.40;;
67544;SDS011;54380;47.770;11.150;2024-01-30T11:43:23;4.97;;;0.75;;
67544;SDS011;54380;47.770;11.150;2024-01-30T11:45:51;3.45;;;0.50;;
67544;SDS011;54380;47.770;11.150;2024-01-30T11:48:19;4.30;;;0.60;;
67544;SDS011;54380;47.770;11.150;2024-01-30T11:50:46;5.05;;;0.60;;
67544;SDS011;54380;47.770;11.150;2024-01-30T11:53:13;2.42;;;0.60;;
67544;SDS011;54380;47.770;11.150;2024-01-30T11:55:40;4.20;;;0.30;;
67544;SDS011;54380;47.770;11.150;2024-01-30T11:58:07;3.35;;;0.52;;
67544;SDS011;54380;47.770;11.150;2024-01-30T12:00:33;4.10;;;0.57;;
67544;SDS011;54380;47.770;11.150;2024-01-30T12:03:03;5.70;;;0.60;;
67544;SDS011;54380;47.770;11.150;2024-01-30T12:05:33;4.90;;;0.50;;
67544;SDS011;54380;47.770;11.150;2024-01-30T12:08:00;3.53;;;0.43;;
67544;SDS011;54380;47.770;11.150;2024-01-30T12:10:28;4.68;;;0.50;;
67544;SDS011;54380;47.770;11.150;2024-01-30T12:12:56;5.93;;;0.82;;
67544;SDS011;54380;47.770;11.150;2024-01-30T12:15:23;11.20;;;1.23;;
67544;SDS011;54380;47.770;11.150;2024-01-30T12:17:51;6.65;;;1.00;;
67544;SDS011;54380;47.770;11.150;2024-01-30T12:20:19;6.30;;;0.95;;
67544;SDS011;54380;47.770;11.150;2024-01-30T12:22:47;7.72;;;0.82;;
67544;SDS011;54380;47.770;11.150;2024-01-30T12:25:14;5.55;;;0.55;;
67544;SDS011;54380;47.770;11.150;2024-01-30T12:27:43;4.93;;;0.85;;
67544;SDS011;54380;47.770;11.150;2024-01-30T12:30:12;5.25;;;0.77;;
67544;SDS011;54380;47.770;11.150;2024-01-30T12:32:40;2.35;;;0.47;;
67544;SDS011;54380;47.770;11.150;2024-01-30T12:35:09;5.35;;;0.73;;
67544;SDS011;54380;47.770;11.150;2024-01-30T12:37:38;6.63;;;0.90;;
67544;SDS011;54380;47.770;11.150;2024-01-30T12:40:06;6.40;;;0.88;;
67544;SDS011;54380;47.770;11.150;2024-01-30T12:42:34;5.35;;;0.70;;
67544;SDS011;54380;47.770;11.150;2024-01-30T12:45:01;7.57;;;0.88;;
67544;SDS011;54380;47.770;11.150;2024-01-30T12:47:28;5.45;;;0.73;;
67544;SDS011;54380;47.770;11.150;2024-01-30T12:49:55;7.57;;;0.75;;
67544;SDS011;54380;47.770;11.150;2024-01-30T12:52:22;4.82;;;0.60;;
67544;SDS011;54380;47.770;11.150;2024-01-30T12:54:51;6.07;;;0.90;;
67544;SDS011;54380;47.770;11.150;2024-01-30T12:57:18;4.95;;;0.65;;
67544;SDS011;54380;47.770;11.150;2024-01-30T12:59:45;6.45;;;1.02;;
67544;SDS011;54380;47.770;11.150;2024-01-30T13:02:12;5.88;;;0.77;;
67544;SDS011;54380;47.770;11.150;2024-01-30T13:04:39;5.22;;;0.50;;
67544;SDS011;54380;47.770;11.150;2024-01-30T13:07:07;5.82;;;0.80;;
67544;SDS011;54380;47.770;11.150;2024-01-30T13:09:34;3.10;;;0.65;;
67544;SDS011;54380;47.770;11.150;2024-01-30T13:12:02;5.03;;;0.82;;
67544;SDS011;54380;47.770;11.150;2024-01-30T13:14:29;3.65;;;0.70;;
67544;SDS011;54380;47.770;11.150;2024-01-30T13:16:56;4.55;;;0.55;;
67544;SDS011;54380;47.770;11.150;2024-01-30T13:19:23;3.47;;;0.50;;
67544;SDS011;54380;47.770;11.150;2024-01-30T13:21:50;5.75;;;0.68;;
67544;SDS011;54380;47.770;11.150;2024-01-30T13:24:17;5.57;;;1.13;;
67544;SDS011;54380;47.770;11.150;2024-01-30T13:26:47;4.95;;;0.70;;
67544;SDS011;54380;47.770;11.150;2024-01-30T13:29:17;3.33;;;0.68;;
67544;SDS011;54380;47.770;11.150;2024-01-30T13:31:44;5.30;;;0.75;;
67544;SDS011;54380;47.770;11.150;2024-01-30T13:34:12;3.97;;;0.60;;
67544;SDS011;54380;47.770;11.150;2024-01-30T13:36:40;4.07;;;0.70;;
67544;SDS011;54380;47.770;11.150;2024-01-30T13:39:08;4.70;;;0.70;;
67544;SDS011;54380;47.770;11.150;2024-01-30T13:41:36;10.10;;;0.93;;
67544;SDS011;54380;47.770;11.150;2024-01-30T13:44:04;5.45;;;0.85;;
67544;SDS011;54380;47.770;11.150;2024-01-30T13:46:32;4.10;;;0.50;;
67544;SDS011;54380;47.770;11.150;2024-01-30T13:49:01;5.93;;;0.70;;
67544;SDS011;54380;47.770;11.150;2024-01-30T13:51:28;3.80;;;0.60;;
67544;SDS011;54380;47.770;11.150;2024-01-30T13:53:55;4.53;;;0.55;;
67544;SDS011;54380;47.770;11.150;2024-01-30T13:56:22;4.32;;;0.70;;
67544;SDS011;54380;47.770;11.150;2024-01-30T13:58:49;4.30;;;0.60;;
67544;SDS011;54380;47.770;11.150;2024-01-30T14:01:16;4.55;;;1.23;;
67544;SDS011;54380;47.770;11.150;2024-01-30T14:03:45;4.80;;;0.80;;
67544;SDS011;54380;47.770;11.150;2024-01-30T14:06:12;6.20;;;0.90;;
67544;SDS011;54380;47.770;11.150;2024-01-30T14:08:39;7.65;;;0.80;;
67544;SDS011;54380;47.770;11.150;2024-01-30T14:11:10;6.45;;;0.80;;
67544;SDS011;54380;47.770;11.150;2024-01-30T14:13:37;8.15;;;0.73;;
67544;SDS011;54380;47.770;11.150;2024-01-30T14:16:04;16.23;;;1.00;;
67544;SDS011;54380;47.770;11.150;2024-01-30T14:18:33;7.47;;;0.85;;
67544;SDS011;54380;47.770;11.150;2024-01-30T14:21:01;6.82;;;1.02;;
67544;SDS011;54380;47.770;11.150;2024-01-30T14:23:29;6.28;;;1.02;;
67544;SDS011;54380;47.770;11.150;2024-01-30T14:25:55;8.10;;;1.10;;
67544;SDS011;54380;47.770;11.150;2024-01-30T14:28:22;7.80;;;0.82;;
67544;SDS011;54380;47.770;11.150;2024-01-30T14:30:49;5.53;;;0.95;;
67544;SDS011;54380;47.770;11.150;2024-01-30T14:33:16;5.85;;;0.77;;